PORTS® Data Listing: 8551762 Delaware City, DE

CO-OPS RAW PORTS DATA

************************      PRELIMINARY DATA      ************************** 

     THIS RAW DATA HAS NOT BEEN SUBJECT TO THE NATIONAL OCEAN SERVICE'S        
     QUALITY CONTROL OR QUALITY ASSURANCE PROCEDURES AND DOES NOT MEET         
     THE CRITERIA AND STANDARDS OF OFFICIAL NATIONAL OCEAN SERVICE             
     DATA.  IT IS RELEASED FOR LIMITED PUBLIC USE AS PRELIMINARY DATA TO       
     BE USED ONLY WITH APPROPRIATE CAUTION.                                    

************************      PRELIMINARY DATA      ************************** 


       CD   -   Calendar date
       T    -   Time
       TZ   -   Timezone
       PW   -   Predicted water level (feet above MLLW)
       OW   -   Observed water level (feet above MLLW)
       WS   -   Wind speed (knots)
       WD   -   Wind direction (degrees true)
       WG   -   Wind gust (knots)
       AT   -   Air temperature (degrees farenheit)
       WT   -   Water temperature (degrees farenheit)
       AP   -   Air pressure (millibars)
       SA   -   Salinty (PSU - Practical Salinity Units)
       SG   -   Specific gravity
       RH   -   Relative humidity
       AG   -   Air gap (feet)
       VI   -   Visibility (nautical miles)

       ** NOTE **
       A variable that has its data fields filled with "9"s, indicates that
       data was not collected for that sample period.
       **********


STATION NAME: Delaware City (8551762)
****************************************************************************************************
    CD       T    TZ    PW     OW    WS   WD   WG    AT    WT    AP    SA    SG     RH    AG   VI
****************************************************************************************************
2020/02/16 13:54 EST    1.61   1.57    5  186    7  46.9  45.3 1019.7 -9.9 -9.999 -99.9 -99.99 -9.99
2020/02/16 14:00 EST    1.73   1.69    8  117    8  41.4  45.3 1019.6 -9.9 -9.999 -99.9 -99.99 -9.99
2020/02/16 14:06 EST    1.86   1.83    6  105    8  42.1  45.7 1019.4 -9.9 -9.999 -99.9 -99.99 -9.99
2020/02/16 14:12 EST    1.98   1.97    5  106    7  42.6  45.5 1019.5 -9.9 -9.999 -99.9 -99.99 -9.99
2020/02/16 14:18 EST    2.11   2.11    7  113    8  42.1  45.5 1019.3 -9.9 -9.999 -99.9 -99.99 -9.99
2020/02/16 14:24 EST    2.23   2.25    7  110    8  42.3  45.5 1019.4 -9.9 -9.999 -99.9 -99.99 -9.99
2020/02/16 14:30 EST    2.35   2.37    6   94    7  42.3  45.5 1019.3 -9.9 -9.999 -99.9 -99.99 -9.99
2020/02/16 14:36 EST    2.47   2.49    7  124    8  43.0  45.3 1019.2 -9.9 -9.999 -99.9 -99.99 -9.99
2020/02/16 14:42 EST    2.59   2.61    8  126   10  43.7  45.3 1019.0 -9.9 -9.999 -99.9 -99.99 -9.99
2020/02/16 14:48 EST    2.71   2.74    5  150    8  44.4  45.5 1019.0 -9.9 -9.999 -99.9 -99.99 -9.99
2020/02/16 14:54 EST    2.82   2.86    9  125   10  44.1  45.5 1019.0 -9.9 -9.999 -99.9 -99.99 -9.99
2020/02/16 15:00 EST    2.93   2.97    4  149    9  45.9  45.3 1019.1 -9.9 -9.999 -99.9 -99.99 -9.99
2020/02/16 15:06 EST    3.04   3.08    7  183    9  48.6  45.3 1019.2 -9.9 -9.999 -99.9 -99.99 -9.99
2020/02/16 15:12 EST    3.15   3.20    5  180    8  49.1  45.3 1019.2 -9.9 -9.999 -99.9 -99.99 -9.99
2020/02/16 15:18 EST    3.25   3.31    5  175    7  49.3  45.3 1019.2 -9.9 -9.999 -99.9 -99.99 -9.99
2020/02/16 15:24 EST    3.36   3.42    5  186    7  49.3  45.3 1019.2 -9.9 -9.999 -99.9 -99.99 -9.99
2020/02/16 15:30 EST    3.46   3.51    6  183    8  49.3  45.3 1019.2 -9.9 -9.999 -99.9 -99.99 -9.99
2020/02/16 15:36 EST    3.56   3.62    4  177    6  49.6  45.3 1019.3 -9.9 -9.999 -99.9 -99.99 -9.99
2020/02/16 15:42 EST    3.65   3.71    5  184    8  49.5  45.5 1019.3 -9.9 -9.999 -99.9 -99.99 -9.99
2020/02/16 15:48 EST    3.75   3.81    6  177    8  49.3  45.5 1019.3 -9.9 -9.999 -99.9 -99.99 -9.99
2020/02/16 15:54 EST    3.84   3.91    6  184    8  48.9  45.5 1019.3 -9.9 -9.999 -99.9 -99.99 -9.99
2020/02/16 16:00 EST    3.93   4.01    7  186    9  48.7  45.5 1019.2 -9.9 -9.999 -99.9 -99.99 -9.99
2020/02/16 16:06 EST    4.01   4.10    6  185    9  48.9  45.5 1019.2 -9.9 -9.999 -99.9 -99.99 -9.99
2020/02/16 16:12 EST    4.10   4.17    5  159    7  48.7  45.5 1019.0 -9.9 -9.999 -99.9 -99.99 -9.99
2020/02/16 16:18 EST    4.18   4.24    5  154    7  48.0  45.5 1019.0 -9.9 -9.999 -99.9 -99.99 -9.99
2020/02/16 16:24 EST    4.25   4.33    5  152    7  47.7  45.5 1019.1 -9.9 -9.999 -99.9 -99.99 -9.99
2020/02/16 16:30 EST    4.32   4.40    5  152    7  47.5  45.3 1019.0 -9.9 -9.999 -99.9 -99.99 -9.99
2020/02/16 16:36 EST    4.39   4.47    3  164    7  48.0  45.5 1019.1 -9.9 -9.999 -99.9 -99.99 -9.99
2020/02/16 16:42 EST    4.45   4.52    4  156    5  47.5  45.7 1018.9 -9.9 -9.999 -99.9 -99.99 -9.99
2020/02/16 16:48 EST    4.50   4.57    4  151    5  47.3  45.7 1018.9 -9.9 -9.999 -99.9 -99.99 -9.99
2020/02/16 16:54 EST    4.55   4.61    4  153    5  47.3  45.7 1018.8 -9.9 -9.999 -99.9 -99.99 -9.99
2020/02/16 17:00 EST    4.60   4.66    4  157    5  46.9  45.5 1018.8 -9.9 -9.999 -99.9 -99.99 -9.99
2020/02/16 17:06 EST    4.63   4.70    4  157    6  46.4  45.5 1018.8 -9.9 -9.999 -99.9 -99.99 -9.99
2020/02/16 17:12 EST    4.66   4.74    4  160    6  46.0  45.5 1019.0 -9.9 -9.999 -99.9 -99.99 -9.99
2020/02/16 17:18 EST    4.68   4.76    3  175    6  45.7  45.5 1019.1 -9.9 -9.999 -99.9 -99.99 -9.99
2020/02/16 17:24 EST    4.70   4.80    4  164    6  45.1  45.5 1018.8 -9.9 -9.999 -99.9 -99.99 -9.99
2020/02/16 17:30 EST    4.70   4.82    5  170    7  44.8  45.5 1019.0 -9.9 -9.999 -99.9 -99.99 -9.99
2020/02/16 17:36 EST    4.70   4.82    5  177    7  44.1  45.5 1019.0 -9.9 -9.999 -99.9 -99.99 -9.99
2020/02/16 17:42 EST    4.69   4.79    5  186    7  43.5  45.5 1019.1 -9.9 -9.999 -99.9 -99.99 -9.99
2020/02/16 17:48 EST    4.67   4.79    5  187    7  43.2  45.7 1019.2 -9.9 -9.999 -99.9 -99.99 -9.99
2020/02/16 17:54 EST    4.65   4.77    4  187    7  42.8  45.7 1019.2 -9.9 -9.999 -99.9 -99.99 -9.99
2020/02/16 18:00 EST    4.62   4.69    5  184    7  42.3  45.7 1019.3 -9.9 -9.999 -99.9 -99.99 -9.99
2020/02/16 18:06 EST    4.58   4.75    4  182    6  41.9  45.7 1019.4 -9.9 -9.999 -99.9 -99.99 -9.99
2020/02/16 18:12 EST    4.53   4.66    5  175    7  41.7  45.7 1019.4 -9.9 -9.999 -99.9 -99.99 -9.99
2020/02/16 18:18 EST    4.48   4.56    3  166    6  41.4  45.7 1019.4 -9.9 -9.999 -99.9 -99.99 -9.99
2020/02/16 18:24 EST    4.42   4.54    4  178    6  41.0  45.7 1019.4 -9.9 -9.999 -99.9 -99.99 -9.99
2020/02/16 18:30 EST    4.35   4.47    4  177    6  40.8  45.7 1019.4 -9.9 -9.999 -99.9 -99.99 -9.99
2020/02/16 18:36 EST    4.28   4.34    4  182    5  40.6  45.7 1019.5 -9.9 -9.999 -99.9 -99.99 -9.99
2020/02/16 18:42 EST    4.21   4.27    4  182    6  40.6  45.7 1019.5 -9.9 -9.999 -99.9 -99.99 -9.99
2020/02/16 18:48 EST    4.13   4.17    4  172    5  40.6  45.7 1019.4 -9.9 -9.999 -99.9 -99.99 -9.99
2020/02/16 18:54 EST    4.05   4.09    3  177    4  40.5  45.7 1019.4 -9.9 -9.999 -99.9 -99.99 -9.99
2020/02/16 19:00 EST    3.96   4.00    2  196    4  40.3  45.7 1019.5 -9.9 -9.999 -99.9 -99.99 -9.99
2020/02/16 19:06 EST    3.87   3.90    3  191    4  40.3  45.7 1019.5 -9.9 -9.999 -99.9 -99.99 -9.99
2020/02/16 19:12 EST    3.77   3.81    2  209    4  40.3  45.7 1019.5 -9.9 -9.999 -99.9 -99.99 -9.99
2020/02/16 19:18 EST    3.68   3.70    2  215    2  40.1  45.7 1019.5 -9.9 -9.999 -99.9 -99.99 -9.99
2020/02/16 19:24 EST    3.58   3.62    3  180    4  40.1  45.7 1019.4 -9.9 -9.999 -99.9 -99.99 -9.99
2020/02/16 19:30 EST    3.48   3.52    2  194    4  40.3  45.7 1019.5 -9.9 -9.999 -99.9 -99.99 -9.99
2020/02/16 19:36 EST    3.39   3.40    3  194    4  40.3  45.7 1019.5 -9.9 -9.999 -99.9 -99.99 -9.99
2020/02/16 19:42 EST    3.29   3.30    3  203    3  40.3  45.7 1019.4 -9.9 -9.999 -99.9 -99.99 -9.99
2020/02/16 19:48 EST    3.19   3.20    3  214    4  40.3  45.7 1019.5 -9.9 -9.999 -99.9 -99.99 -9.99
2020/02/16 19:54 EST    3.09   3.11    2  214    3  40.3  45.5 1019.4 -9.9 -9.999 -99.9 -99.99 -9.99
2020/02/16 20:00 EST    2.99   3.01    2  214    3  40.5  45.5 1019.4 -9.9 -9.999 -99.9 -99.99 -9.99
2020/02/16 20:06 EST    2.89   2.90    2  216    4  40.5  45.5 1019.3 -9.9 -9.999 -99.9 -99.99 -9.99
2020/02/16 20:12 EST    2.79   2.81    2  204    3  40.5  45.7 1019.3 -9.9 -9.999 -99.9 -99.99 -9.99
2020/02/16 20:18 EST    2.69   2.71    1  196    2  40.1  45.7 1019.4 -9.9 -9.999 -99.9 -99.99 -9.99
2020/02/16 20:24 EST    2.59   2.65    1  114    1  39.9  45.9 1019.4 -9.9 -9.999 -99.9 -99.99 -9.99
2020/02/16 20:30 EST    2.50   2.54    1   56    2  40.1  45.9 1019.4 -9.9 -9.999 -99.9 -99.99 -9.99
2020/02/16 20:36 EST    2.40   2.43    3   47    4  39.9  45.9 1019.4 -9.9 -9.999 -99.9 -99.99 -9.99
2020/02/16 20:42 EST    2.31   2.37    2   69    3  39.9  46.2 1019.3 -9.9 -9.999 -99.9 -99.99 -9.99
2020/02/16 20:48 EST    2.22   2.27    2   97    2  39.7  46.2 1019.3 -9.9 -9.999 -99.9 -99.99 -9.99
2020/02/16 20:54 EST    2.13   2.19    3  125    3  39.6  46.2 1019.3 -9.9 -9.999 -99.9 -99.99 -9.99
2020/02/16 21:00 EST    2.04   2.12    2  136    3  39.4  46.4 1019.1 -9.9 -9.999 -99.9 -99.99 -9.99
2020/02/16 21:06 EST    1.96   2.04    2  162    3  39.2  46.4 1019.2 -9.9 -9.999 -99.9 -99.99 -9.99
2020/02/16 21:12 EST    1.87   1.95    1  162    2  38.8  46.2 1019.2 -9.9 -9.999 -99.9 -99.99 -9.99
2020/02/16 21:18 EST    1.79   1.89    0  166    2  38.5  46.4 1019.4 -9.9 -9.999 -99.9 -99.99 -9.99
2020/02/16 21:24 EST    1.70   1.80    0  181    0  38.1  46.2 1019.4 -9.9 -9.999 -99.9 -99.99 -9.99
2020/02/16 21:30 EST    1.62   1.72    0  181    0  38.5  46.4 1019.4 -9.9 -9.999 -99.9 -99.99 -9.99
2020/02/16 21:36 EST    1.54   1.63    2  170    2  38.1  46.4 1019.4 -9.9 -9.999 -99.9 -99.99 -9.99
2020/02/16 21:42 EST    1.46   1.53    1  178    2  38.1  46.2 1019.5 -9.9 -9.999 -99.9 -99.99 -9.99
2020/02/16 21:48 EST    1.38   1.51    0  207    0  37.9  46.2 1019.6 -9.9 -9.999 -99.9 -99.99 -9.99
2020/02/16 21:54 EST    1.30   1.41    0  207    0  38.1  46.4 1019.6 -9.9 -9.999 -99.9 -99.99 -9.99
2020/02/16 22:00 EST    1.23   1.33    0  220    1  37.8  46.2 1019.7 -9.9 -9.999 -99.9 -99.99 -9.99
2020/02/16 22:06 EST    1.15   1.27    3  312    4  37.4  46.2 1019.8 -9.9 -9.999 -99.9 -99.99 -9.99
2020/02/16 22:12 EST    1.07   1.20    2  311    3  37.6  46.4 1019.9 -9.9 -9.999 -99.9 -99.99 -9.99
2020/02/16 22:18 EST    0.99   1.13    2  344    3  38.7  46.4 1019.9 -9.9 -9.999 -99.9 -99.99 -9.99
2020/02/16 22:24 EST    0.92   1.07    1  328    2  38.5  46.4 1020.0 -9.9 -9.999 -99.9 -99.99 -9.99
2020/02/16 22:30 EST    0.84   1.00    3  334    3  38.7  46.4 1020.0 -9.9 -9.999 -99.9 -99.99 -9.99
2020/02/16 22:36 EST    0.76   0.92    2  333    4  39.0  46.6 1019.9 -9.9 -9.999 -99.9 -99.99 -9.99
2020/02/16 22:42 EST    0.69   0.85    1  336    3  39.4  46.6 1020.0 -9.9 -9.999 -99.9 -99.99 -9.99
2020/02/16 22:48 EST    0.61   0.80    0  264    2  39.4  46.6 1020.0 -9.9 -9.999 -99.9 -99.99 -9.99
2020/02/16 22:54 EST    0.54   0.70    0  342    1  39.2  46.6 1019.9 -9.9 -9.999 -99.9 -99.99 -9.99
2020/02/16 23:00 EST    0.46   0.66    0  342    0  39.2  46.8 1019.8 -9.9 -9.999 -99.9 -99.99 -9.99
2020/02/16 23:06 EST    0.39   0.58    0  342    0  39.2  46.8 1019.7 -9.9 -9.999 -99.9 -99.99 -9.99
2020/02/16 23:12 EST    0.32   0.49    0  342    0  39.2  46.8 1019.7 -9.9 -9.999 -99.9 -99.99 -9.99
2020/02/16 23:18 EST    0.26   0.43    0  342    0  39.2  46.8 1019.7 -9.9 -9.999 -99.9 -99.99 -9.99
2020/02/16 23:24 EST    0.20   0.40    1  345    2  39.2  46.8 1019.8 -9.9 -9.999 -99.9 -99.99 -9.99
2020/02/16 23:30 EST    0.14   0.35    0  340    1  39.2  47.1 1019.8 -9.9 -9.999 -99.9 -99.99 -9.99
2020/02/16 23:36 EST    0.08   0.29    0  340    0  39.4  47.1 1019.9 -9.9 -9.999 -99.9 -99.99 -9.99
2020/02/16 23:42 EST    0.04   0.22    1  340    1  39.4  47.1 1019.8 -9.9 -9.999 -99.9 -99.99 -9.99
2020/02/16 23:48 EST   -0.01   0.18    0  345    1  39.6  47.1 1019.8 -9.9 -9.999 -99.9 -99.99 -9.99
2020/02/16 23:54 EST   -0.04   0.13    0  345    0  39.4  47.3 1019.8 -9.9 -9.999 -99.9 -99.99 -9.99
2020/02/17 00:00 EST   -0.07   0.07    0  345    0  39.4  47.5 1019.8 -9.9 -9.999 -99.9 -99.99 -9.99
2020/02/17 00:06 EST   -0.09   0.04    0  345    0  39.4  47.5 1019.8 -9.9 -9.999 -99.9 -99.99 -9.99
2020/02/17 00:12 EST   -0.10  -0.00    1  345    1  39.6  47.5 1019.8 -9.9 -9.999 -99.9 -99.99 -9.99
2020/02/17 00:18 EST   -0.10  -0.03    2   11    2  39.6  47.5 1019.9 -9.9 -9.999 -99.9 -99.99 -9.99
2020/02/17 00:24 EST   -0.10  -0.06    1   55    2  39.7  47.5 1019.9 -9.9 -9.999 -99.9 -99.99 -9.99
2020/02/17 00:30 EST   -0.08  -0.09    0   63    1  39.7  47.5 1019.9 -9.9 -9.999 -99.9 -99.99 -9.99
2020/02/17 00:36 EST   -0.05  -0.09    0   57    0  39.4  47.5 1019.8 -9.9 -9.999 -99.9 -99.99 -9.99
2020/02/17 00:42 EST   -0.02  -0.10    0  340    0  39.4  47.5 1019.9 -9.9 -9.999 -99.9 -99.99 -9.99
2020/02/17 00:48 EST    0.03  -0.08    2  185    2  39.0  47.5 1019.9 -9.9 -9.999 -99.9 -99.99 -9.99
2020/02/17 00:54 EST    0.09  -0.06    3  180    3  38.8  47.5 1020.0 -9.9 -9.999 -99.9 -99.99 -9.99
2020/02/17 01:00 EST    0.16  -0.01    2  189    3  38.8  47.3 1020.0 -9.9 -9.999 -99.9 -99.99 -9.99
2020/02/17 01:06 EST    0.23   0.05    2  211    2  39.0  47.3 1020.1 -9.9 -9.999 -99.9 -99.99 -9.99
2020/02/17 01:12 EST    0.32   0.13    2  206    2  38.8  47.3 1020.0 -9.9 -9.999 -99.9 -99.99 -9.99
2020/02/17 01:18 EST    0.41   0.23    0  212    2  38.5  47.3 1020.0 -9.9 -9.999 -99.9 -99.99 -9.99
2020/02/17 01:24 EST    0.51   0.37    0  212    1  38.7  47.3 1019.9 -9.9 -9.999 -99.9 -99.99 -9.99
2020/02/17 01:30 EST    0.62   0.52    2  187    2  38.5  47.3 1019.8 -9.9 -9.999 -99.9 -99.99 -9.99
2020/02/17 01:36 EST    0.73   0.68    2  241    2  38.5  47.1 1019.9 -9.9 -9.999 -99.9 -99.99 -9.99
2020/02/17 01:42 EST    0.86   0.84    1  278    2  39.4  47.1 1019.8 -9.9 -9.999 -99.9 -99.99 -9.99
2020/02/17 01:48 EST    0.98   1.00    1  289    1  39.4  46.9 1019.9 -9.9 -9.999 -99.9 -99.99 -9.99
2020/02/17 01:54 EST    1.11   1.18    0  246    2  39.2  46.9 1019.9 -9.9 -9.999 -99.9 -99.99 -9.99
2020/02/17 02:00 EST    1.24   1.36    1  230    2  39.4  46.9 1019.9 -9.9 -9.999 -99.9 -99.99 -9.99
2020/02/17 02:06 EST    1.38   1.54    1  232    2  39.0  46.8 1020.0 -9.9 -9.999 -99.9 -99.99 -9.99
2020/02/17 02:12 EST    1.52   1.69    1  252    1  39.0  46.8 1020.0 -9.9 -9.999 -99.9 -99.99 -9.99
2020/02/17 02:18 EST    1.65   1.85    1  257    2  39.0  46.6 1020.0 -9.9 -9.999 -99.9 -99.99 -9.99
2020/02/17 02:24 EST    1.79   2.01    2  318    2  39.0  46.6 1020.1 -9.9 -9.999 -99.9 -99.99 -9.99
2020/02/17 02:30 EST    1.93   2.16    3  308    3  38.7  46.6 1020.2 -9.9 -9.999 -99.9 -99.99 -9.99
2020/02/17 02:36 EST    2.07   2.30    1  305    2  39.0  46.4 1020.2 -9.9 -9.999 -99.9 -99.99 -9.99
2020/02/17 02:42 EST    2.20   2.45    1  315    1  39.4  46.4 1020.2 -9.9 -9.999 -99.9 -99.99 -9.99
2020/02/17 02:48 EST    2.34   2.58    2  329    2  39.6  46.4 1020.2 -9.9 -9.999 -99.9 -99.99 -9.99
2020/02/17 02:54 EST    2.47   2.71    2  331    3  39.4  46.4 1020.2 -9.9 -9.999 -99.9 -99.99 -9.99
2020/02/17 03:00 EST    2.60   2.84    1  313    2  39.2  46.4 1020.2 -9.9 -9.999 -99.9 -99.99 -9.99
2020/02/17 03:06 EST    2.73   2.97    0  313    1  39.4  46.4 1020.2 -9.9 -9.999 -99.9 -99.99 -9.99
2020/02/17 03:12 EST    2.86   3.10    1  321    2  39.4  46.4 1020.2 -9.9 -9.999 -99.9 -99.99 -9.99
2020/02/17 03:18 EST    2.98   3.23    2  326    2  39.4  46.4 1020.2 -9.9 -9.999 -99.9 -99.99 -9.99
2020/02/17 03:24 EST    3.10   3.36    2  324    2  39.4  46.2 1020.3 -9.9 -9.999 -99.9 -99.99 -9.99
2020/02/17 03:30 EST    3.22   3.49    2  319    2  39.4  46.2 1020.3 -9.9 -9.999 -99.9 -99.99 -9.99
2020/02/17 03:36 EST    3.34   3.61    3  346    4  40.1  46.2 1020.3 -9.9 -9.999 -99.9 -99.99 -9.99
2020/02/17 03:42 EST    3.45   3.73    4  344    4  40.3  46.0 1020.4 -9.9 -9.999 -99.9 -99.99 -9.99
2020/02/17 03:48 EST    3.57   3.84    4  347    4  40.3  46.0 1020.4 -9.9 -9.999 -99.9 -99.99 -9.99
2020/02/17 03:54 EST    3.68   3.96    5  352    5  40.1  46.0 1020.5 -9.9 -9.999 -99.9 -99.99 -9.99
2020/02/17 04:00 EST    3.79   4.08    5    3    6  40.1  45.9 1020.5 -9.9 -9.999 -99.9 -99.99 -9.99
2020/02/17 04:06 EST    3.89   4.19    5    4    6  39.9  45.9 1020.5 -9.9 -9.999 -99.9 -99.99 -9.99
2020/02/17 04:12 EST    4.00   4.33    4    3    6  40.1  45.9 1020.6 -9.9 -9.999 -99.9 -99.99 -9.99
2020/02/17 04:18 EST    4.10   4.42    4    6    5  40.1  45.7 1020.8 -9.9 -9.999 -99.9 -99.99 -9.99
2020/02/17 04:24 EST    4.19   4.53    3    5    5  40.1  45.7 1020.8 -9.9 -9.999 -99.9 -99.99 -9.99
2020/02/17 04:30 EST    4.29   4.65    3    3    4  40.3  45.7 1020.9 -9.9 -9.999 -99.9 -99.99 -9.99
2020/02/17 04:36 EST    4.38   4.73    5    2    6  40.8  45.7 1020.9 -9.9 -9.999 -99.9 -99.99 -9.99
2020/02/17 04:42 EST    4.47   4.82    6  358    7  40.8  45.7 1021.1 -9.9 -9.999 -99.9 -99.99 -9.99
2020/02/17 04:48 EST    4.56   4.91    7  351    8  40.8  45.7 1021.3 -9.9 -9.999 -99.9 -99.99 -9.99
2020/02/17 04:54 EST    4.64   5.02    7    2    9  41.0  45.7 1021.3 -9.9 -9.999 -99.9 -99.99 -9.99
2020/02/17 05:00 EST    4.71   5.09    7    3    9  41.0  45.7 1021.4 -9.9 -9.999 -99.9 -99.99 -9.99
2020/02/17 05:06 EST    4.78   5.16    7    4    9  41.0  45.7 1021.5 -9.9 -9.999 -99.9 -99.99 -9.99
2020/02/17 05:12 EST    4.85   5.22    8    5    9  41.0  45.7 1021.6 -9.9 -9.999 -99.9 -99.99 -9.99
2020/02/17 05:18 EST    4.91   5.28    6  355    8  41.0  45.7 1021.7 -9.9 -9.999 -99.9 -99.99 -9.99
2020/02/17 05:24 EST    4.96   5.35    6    2    7  40.8  45.7 1021.7 -9.9 -9.999 -99.9 -99.99 -9.99
2020/02/17 05:30 EST    5.00   5.40    5  353    7  40.8  45.7 1022.0 -9.9 -9.999 -99.9 -99.99 -9.99
2020/02/17 05:36 EST    5.04   5.44    5    5    5  40.6  45.7 1022.0 -9.9 -9.999 -99.9 -99.99 -9.99
2020/02/17 05:42 EST    5.07   5.49    6    5    6  40.6  45.7 1022.1 -9.9 -9.999 -99.9 -99.99 -9.99
2020/02/17 05:48 EST    5.10   5.53    5  350    6  40.6  45.7 1022.1 -9.9 -9.999 -99.9 -99.99 -9.99
2020/02/17 05:54 EST    5.12   5.56    5  352    6  40.5  45.7 1022.1 -9.9 -9.999 -99.9 -99.99 -9.99
2020/02/17 06:00 EST    5.13   5.58    3  340    5  40.3  45.7 1022.1 -9.9 -9.999 -99.9 -99.99 -9.99
2020/02/17 06:06 EST    5.13   5.60    2  339    4  39.2  45.7 1022.1 -9.9 -9.999 -99.9 -99.99 -9.99
2020/02/17 06:12 EST    5.12   5.61    2  334    3  38.7  45.7 1022.2 -9.9 -9.999 -99.9 -99.99 -9.99
2020/02/17 06:18 EST    5.11   5.61    2  343    3  38.3  45.7 1022.3 -9.9 -9.999 -99.9 -99.99 -9.99
2020/02/17 06:24 EST    5.09   5.59    2  351    3  38.1  45.7 1022.5 -9.9 -9.999 -99.9 -99.99 -9.99
2020/02/17 06:30 EST    5.06   5.58    2  324    3  37.8  45.7 1022.8 -9.9 -9.999 -99.9 -99.99 -9.99
2020/02/17 06:36 EST    5.02   5.56    2  336    3  37.6  45.7 1022.9 -9.9 -9.999 -99.9 -99.99 -9.99
2020/02/17 06:42 EST    4.98   5.52    3  350    4  37.9  45.7 1023.0 -9.9 -9.999 -99.9 -99.99 -9.99
2020/02/17 06:48 EST    4.93   5.50    4  339    6  39.6  45.7 1023.0 -9.9 -9.999 -99.9 -99.99 -9.99
2020/02/17 06:54 EST    4.88   5.45    5  345    7  39.6  45.7 1023.1 -9.9 -9.999 -99.9 -99.99 -9.99
2020/02/17 07:00 EST    4.82   5.39    5  347    6  39.6  45.7 1023.1 -9.9 -9.999 -99.9 -99.99 -9.99
2020/02/17 07:06 EST    4.75   5.33    4  345    6  39.4  45.7 1023.3 -9.9 -9.999 -99.9 -99.99 -9.99
2020/02/17 07:12 EST    4.68   5.25    4  345    6  39.7  45.7 1023.5 -9.9 -9.999 -99.9 -99.99 -9.99
2020/02/17 07:18 EST    4.61   5.17    3  347    5  39.0  45.7 1023.5 -9.9 -9.999 -99.9 -99.99 -9.99
2020/02/17 07:24 EST    4.53   5.08    4  348    5  39.9  45.7 1023.7 -9.9 -9.999 -99.9 -99.99 -9.99
2020/02/17 07:30 EST    4.45   4.98    4  353    6  40.1  45.5 1023.8 -9.9 -9.999 -99.9 -99.99 -9.99
2020/02/17 07:36 EST    4.37   4.88    6  343    7  39.9  45.5 1023.9 -9.9 -9.999 -99.9 -99.99 -9.99
2020/02/17 07:42 EST    4.28   4.78    6  349    7  39.9  45.5 1023.9 -9.9 -9.999 -99.9 -99.99 -9.99
2020/02/17 07:48 EST    4.20 -99.99 -999 -999 -999 -99.9 -99.9 -999.9 -9.9 -9.999 -99.9 -99.99 -9.99
2020/02/17 07:54 EST    4.11 -99.99 -999 -999 -999 -99.9 -99.9 -999.9 -9.9 -9.999 -99.9 -99.99 -9.99
2020/02/17 08:00 EST    4.02 -99.99 -999 -999 -999 -99.9 -99.9 -999.9 -9.9 -9.999 -99.9 -99.99 -9.99
2020/02/17 08:06 EST    3.93 -99.99 -999 -999 -999 -99.9 -99.9 -999.9 -9.9 -9.999 -99.9 -99.99 -9.99
2020/02/17 08:12 EST    3.84 -99.99 -999 -999 -999 -99.9 -99.9 -999.9 -9.9 -9.999 -99.9 -99.99 -9.99
2020/02/17 08:18 EST    3.74 -99.99 -999 -999 -999 -99.9 -99.9 -999.9 -9.9 -9.999 -99.9 -99.99 -9.99
2020/02/17 08:24 EST    3.65 -99.99 -999 -999 -999 -99.9 -99.9 -999.9 -9.9 -9.999 -99.9 -99.99 -9.99
2020/02/17 08:30 EST    3.56 -99.99 -999 -999 -999 -99.9 -99.9 -999.9 -9.9 -9.999 -99.9 -99.99 -9.99
2020/02/17 08:36 EST    3.47 -99.99 -999 -999 -999 -99.9 -99.9 -999.9 -9.9 -9.999 -99.9 -99.99 -9.99
2020/02/17 08:42 EST    3.38 -99.99 -999 -999 -999 -99.9 -99.9 -999.9 -9.9 -9.999 -99.9 -99.99 -9.99
2020/02/17 08:48 EST    3.29 -99.99 -999 -999 -999 -99.9 -99.9 -999.9 -9.9 -9.999 -99.9 -99.99 -9.99
2020/02/17 08:54 EST    3.20 -99.99 -999 -999 -999 -99.9 -99.9 -999.9 -9.9 -9.999 -99.9 -99.99 -9.99
2020/02/17 09:00 EST    3.11 -99.99 -999 -999 -999 -99.9 -99.9 -999.9 -9.9 -9.999 -99.9 -99.99 -9.99
2020/02/17 09:06 EST    3.02 -99.99 -999 -999 -999 -99.9 -99.9 -999.9 -9.9 -9.999 -99.9 -99.99 -9.99
2020/02/17 09:12 EST    2.94 -99.99 -999 -999 -999 -99.9 -99.9 -999.9 -9.9 -9.999 -99.9 -99.99 -9.99
2020/02/17 09:18 EST    2.85 -99.99 -999 -999 -999 -99.9 -99.9 -999.9 -9.9 -9.999 -99.9 -99.99 -9.99
2020/02/17 09:24 EST    2.77 -99.99 -999 -999 -999 -99.9 -99.9 -999.9 -9.9 -9.999 -99.9 -99.99 -9.99
2020/02/17 09:30 EST    2.68 -99.99 -999 -999 -999 -99.9 -99.9 -999.9 -9.9 -9.999 -99.9 -99.99 -9.99
2020/02/17 09:36 EST    2.60 -99.99 -999 -999 -999 -99.9 -99.9 -999.9 -9.9 -9.999 -99.9 -99.99 -9.99
2020/02/17 09:42 EST    2.52 -99.99 -999 -999 -999 -99.9 -99.9 -999.9 -9.9 -9.999 -99.9 -99.99 -9.99
2020/02/17 09:48 EST    2.44 -99.99 -999 -999 -999 -99.9 -99.9 -999.9 -9.9 -9.999 -99.9 -99.99 -9.99
2020/02/17 09:54 EST    2.36 -99.99 -999 -999 -999 -99.9 -99.9 -999.9 -9.9 -9.999 -99.9 -99.99 -9.99
2020/02/17 10:00 EST    2.27 -99.99 -999 -999 -999 -99.9 -99.9 -999.9 -9.9 -9.999 -99.9 -99.99 -9.99
2020/02/17 10:06 EST    2.19 -99.99 -999 -999 -999 -99.9 -99.9 -999.9 -9.9 -9.999 -99.9 -99.99 -9.99
2020/02/17 10:12 EST    2.11 -99.99 -999 -999 -999 -99.9 -99.9 -999.9 -9.9 -9.999 -99.9 -99.99 -9.99
2020/02/17 10:18 EST    2.03 -99.99 -999 -999 -999 -99.9 -99.9 -999.9 -9.9 -9.999 -99.9 -99.99 -9.99
2020/02/17 10:24 EST    1.95 -99.99 -999 -999 -999 -99.9 -99.9 -999.9 -9.9 -9.999 -99.9 -99.99 -9.99
2020/02/17 10:30 EST    1.86 -99.99 -999 -999 -999 -99.9 -99.9 -999.9 -9.9 -9.999 -99.9 -99.99 -9.99
2020/02/17 10:36 EST    1.78 -99.99 -999 -999 -999 -99.9 -99.9 -999.9 -9.9 -9.999 -99.9 -99.99 -9.99
2020/02/17 10:42 EST    1.69 -99.99 -999 -999 -999 -99.9 -99.9 -999.9 -9.9 -9.999 -99.9 -99.99 -9.99
2020/02/17 10:48 EST    1.61 -99.99 -999 -999 -999 -99.9 -99.9 -999.9 -9.9 -9.999 -99.9 -99.99 -9.99
2020/02/17 10:54 EST    1.52 -99.99 -999 -999 -999 -99.9 -99.9 -999.9 -9.9 -9.999 -99.9 -99.99 -9.99
2020/02/17 11:00 EST    1.43 -99.99 -999 -999 -999 -99.9 -99.9 -999.9 -9.9 -9.999 -99.9 -99.99 -9.99
2020/02/17 11:06 EST    1.35 -99.99 -999 -999 -999 -99.9 -99.9 -999.9 -9.9 -9.999 -99.9 -99.99 -9.99
2020/02/17 11:12 EST    1.26 -99.99 -999 -999 -999 -99.9 -99.9 -999.9 -9.9 -9.999 -99.9 -99.99 -9.99
2020/02/17 11:18 EST    1.17 -99.99 -999 -999 -999 -99.9 -99.9 -999.9 -9.9 -9.999 -99.9 -99.99 -9.99
2020/02/17 11:24 EST    1.08 -99.99 -999 -999 -999 -99.9 -99.9 -999.9 -9.9 -9.999 -99.9 -99.99 -9.99
2020/02/17 11:30 EST    0.99 -99.99 -999 -999 -999 -99.9 -99.9 -999.9 -9.9 -9.999 -99.9 -99.99 -9.99
2020/02/17 11:36 EST    0.90 -99.99 -999 -999 -999 -99.9 -99.9 -999.9 -9.9 -9.999 -99.9 -99.99 -9.99
2020/02/17 11:42 EST    0.82 -99.99 -999 -999 -999 -99.9 -99.9 -999.9 -9.9 -9.999 -99.9 -99.99 -9.99
2020/02/17 11:48 EST    0.73 -99.99 -999 -999 -999 -99.9 -99.9 -999.9 -9.9 -9.999 -99.9 -99.99 -9.99
2020/02/17 11:54 EST    0.65 -99.99 -999 -999 -999 -99.9 -99.9 -999.9 -9.9 -9.999 -99.9 -99.99 -9.99
2020/02/17 12:00 EST    0.57 -99.99 -999 -999 -999 -99.9 -99.9 -999.9 -9.9 -9.999 -99.9 -99.99 -9.99
2020/02/17 12:06 EST    0.50 -99.99 -999 -999 -999 -99.9 -99.9 -999.9 -9.9 -9.999 -99.9 -99.99 -9.99
2020/02/17 12:12 EST    0.43 -99.99 -999 -999 -999 -99.9 -99.9 -999.9 -9.9 -9.999 -99.9 -99.99 -9.99
2020/02/17 12:18 EST    0.37 -99.99 -999 -999 -999 -99.9 -99.9 -999.9 -9.9 -9.999 -99.9 -99.99 -9.99
2020/02/17 12:24 EST    0.31 -99.99 -999 -999 -999 -99.9 -99.9 -999.9 -9.9 -9.999 -99.9 -99.99 -9.99
2020/02/17 12:30 EST    0.26 -99.99 -999 -999 -999 -99.9 -99.9 -999.9 -9.9 -9.999 -99.9 -99.99 -9.99
2020/02/17 12:36 EST    0.21 -99.99 -999 -999 -999 -99.9 -99.9 -999.9 -9.9 -9.999 -99.9 -99.99 -9.99
2020/02/17 12:42 EST    0.18 -99.99 -999 -999 -999 -99.9 -99.9 -999.9 -9.9 -9.999 -99.9 -99.99 -9.99
2020/02/17 12:48 EST    0.15 -99.99 -999 -999 -999 -99.9 -99.9 -999.9 -9.9 -9.999 -99.9 -99.99 -9.99
2020/02/17 12:54 EST    0.14 -99.99 -999 -999 -999 -99.9 -99.9 -999.9 -9.9 -9.999 -99.9 -99.99 -9.99
2020/02/17 13:00 EST    0.13 -99.99 -999 -999 -999 -99.9 -99.9 -999.9 -9.9 -9.999 -99.9 -99.99 -9.99
2020/02/17 13:06 EST    0.13 -99.99 -999 -999 -999 -99.9 -99.9 -999.9 -9.9 -9.999 -99.9 -99.99 -9.99
2020/02/17 13:12 EST    0.14 -99.99 -999 -999 -999 -99.9 -99.9 -999.9 -9.9 -9.999 -99.9 -99.99 -9.99
2020/02/17 13:18 EST    0.16 -99.99 -999 -999 -999 -99.9 -99.9 -999.9 -9.9 -9.999 -99.9 -99.99 -9.99
2020/02/17 13:24 EST    0.19 -99.99 -999 -999 -999 -99.9 -99.9 -999.9 -9.9 -9.999 -99.9 -99.99 -9.99
2020/02/17 13:30 EST    0.23 -99.99 -999 -999 -999 -99.9 -99.9 -999.9 -9.9 -9.999 -99.9 -99.99 -9.99
2020/02/17 13:36 EST    0.28 -99.99 -999 -999 -999 -99.9 -99.9 -999.9 -9.9 -9.999 -99.9 -99.99 -9.99
2020/02/17 13:42 EST    0.34 -99.99 -999 -999 -999 -99.9 -99.9 -999.9 -9.9 -9.999 -99.9 -99.99 -9.99
2020/02/17 13:48 EST    0.41 -99.99 -999 -999 -999 -99.9 -99.9 -999.9 -9.9 -9.999 -99.9 -99.99 -9.99
2020/02/17 13:54 EST    0.48 -99.99 -999 -999 -999 -99.9 -99.9 -999.9 -9.9 -9.999 -99.9 -99.99 -9.99